sensor_id;sensor_type;location;lat;lon;timestamp;pressure;altitude;pressure_sealevel;temperature
61977;BMP280;45905;50.570;10.428;2023-04-03T00:01:11;98920.50;;;4.00
61977;BMP280;45905;50.570;10.428;2023-04-03T00:03:39;98929.00;;;3.98
61977;BMP280;45905;50.570;10.428;2023-04-03T00:06:09;98929.19;;;3.95
61977;BMP280;45905;50.570;10.428;2023-04-03T00:08:39;98922.66;;;3.92
61977;BMP280;45905;50.570;10.428;2023-04-03T00:11:08;98931.91;;;3.92
61977;BMP280;45905;50.570;10.428;2023-04-03T00:13:36;98937.00;;;3.90
61977;BMP280;45905;50.570;10.428;2023-04-03T00:16:04;98930.53;;;3.86
61977;BMP280;45905;50.570;10.428;2023-04-03T00:18:32;98930.09;;;3.80
61977;BMP280;45905;50.570;10.428;2023-04-03T00:20:59;98936.09;;;3.78
61977;BMP280;45905;50.570;10.428;2023-04-03T00:23:26;98936.19;;;3.76
61977;BMP280;45905;50.570;10.428;2023-04-03T00:25:54;98943.81;;;3.75
61977;BMP280;45905;50.570;10.428;2023-04-03T00:28:22;98943.00;;;3.74
61977;BMP280;45905;50.570;10.428;2023-04-03T00:30:50;98935.81;;;3.68
61977;BMP280;45905;50.570;10.428;2023-04-03T00:33:17;98941.13;;;3.64
61977;BMP280;45905;50.570;10.428;2023-04-03T00:35:49;98939.50;;;3.63
61977;BMP280;45905;50.570;10.428;2023-04-03T00:38:17;98950.41;;;3.62
61977;BMP280;45905;50.570;10.428;2023-04-03T00:40:47;98947.81;;;3.63
61977;BMP280;45905;50.570;10.428;2023-04-03T00:43:24;98954.63;;;3.61
61977;BMP280;45905;50.570;10.428;2023-04-03T00:45:56;98958.22;;;3.58
61977;BMP280;45905;50.570;10.428;2023-04-03T00:48:44;98952.84;;;3.50
61977;BMP280;45905;50.570;10.428;2023-04-03T00:51:30;98952.09;;;3.48
61977;BMP280;45905;50.570;10.428;2023-04-03T00:54:05;98955.50;;;3.47
61977;BMP280;45905;50.570;10.428;2023-04-03T00:56:33;98952.28;;;3.45
61977;BMP280;45905;50.570;10.428;2023-04-03T00:59:18;98948.22;;;3.42
61977;BMP280;45905;50.570;10.428;2023-04-03T01:01:49;98948.06;;;3.45
61977;BMP280;45905;50.570;10.428;2023-04-03T01:04:40;98959.63;;;3.48
61977;BMP280;45905;50.570;10.428;2023-04-03T01:07:30;98953.72;;;3.49
61977;BMP280;45905;50.570;10.428;2023-04-03T01:10:04;98951.91;;;3.51
61977;BMP280;45905;50.570;10.428;2023-04-03T01:12:38;98953.72;;;3.49
61977;BMP280;45905;50.570;10.428;2023-04-03T01:15:20;98946.38;;;3.46
61977;BMP280;45905;50.570;10.428;2023-04-03T01:17:54;98955.66;;;3.44
61977;BMP280;45905;50.570;10.428;2023-04-03T01:23:47;98954.69;;;3.46
61977;BMP280;45905;50.570;10.428;2023-04-03T01:26:17;98948.06;;;3.45
61977;BMP280;45905;50.570;10.428;2023-04-03T01:28:45;98955.50;;;3.47
61977;BMP280;45905;50.570;10.428;2023-04-03T01:34:13;98959.06;;;3.43
61977;BMP280;45905;50.570;10.428;2023-04-03T01:36:40;98964.28;;;3.40
61977;BMP280;45905;50.570;10.428;2023-04-03T01:39:08;98966.28;;;3.34
61977;BMP280;45905;50.570;10.428;2023-04-03T01:41:36;98970.13;;;3.25
61977;BMP280;45905;50.570;10.428;2023-04-03T01:44:29;98967.00;;;3.22
61977;BMP280;45905;50.570;10.428;2023-04-03T01:46:57;98974.75;;;3.18
61977;BMP280;45905;50.570;10.428;2023-04-03T01:49:26;98972.44;;;3.15
61977;BMP280;45905;50.570;10.428;2023-04-03T01:51:54;98976.00;;;3.11
61977;BMP280;45905;50.570;10.428;2023-04-03T01:54:21;98976.00;;;3.11
61977;BMP280;45905;50.570;10.428;2023-04-03T01:56:48;98972.59;;;3.12
61977;BMP280;45905;50.570;10.428;2023-04-03T01:59:16;98979.38;;;3.10
61977;BMP280;45905;50.570;10.428;2023-04-03T02:01:45;98976.97;;;3.08
61977;BMP280;45905;50.570;10.428;2023-04-03T02:04:12;98976.50;;;3.02
61977;BMP280;45905;50.570;10.428;2023-04-03T02:06:40;98975.16;;;2.97
61977;BMP280;45905;50.570;10.428;2023-04-03T02:09:07;98978.97;;;2.88
61977;BMP280;45905;50.570;10.428;2023-04-03T02:11:35;98979.28;;;2.83
61977;BMP280;45905;50.570;10.428;2023-04-03T02:14:02;98986.25;;;2.78
61977;BMP280;45905;50.570;10.428;2023-04-03T02:16:29;98981.47;;;2.73
61977;BMP280;45905;50.570;10.428;2023-04-03T02:18:58;98990.84;;;2.70
61977;BMP280;45905;50.570;10.428;2023-04-03T02:21:26;98986.88;;;2.66
61977;BMP280;45905;50.570;10.428;2023-04-03T02:23:53;98990.28;;;2.65
61977;BMP280;45905;50.570;10.428;2023-04-03T02:26:20;98988.50;;;2.67
61977;BMP280;45905;50.570;10.428;2023-04-03T02:28:48;98984.38;;;2.66
61977;BMP280;45905;50.570;10.428;2023-04-03T02:31:15;98985.28;;;2.65
61977;BMP280;45905;50.570;10.428;2023-04-03T02:33:44;98985.28;;;2.65
61977;BMP280;45905;50.570;10.428;2023-04-03T02:36:14;98983.66;;;2.64
61977;BMP280;45905;50.570;10.428;2023-04-03T02:38:45;98985.19;;;2.66
61977;BMP280;45905;50.570;10.428;2023-04-03T02:41:13;98990.13;;;2.68
61977;BMP280;45905;50.570;10.428;2023-04-03T02:43:40;98983.44;;;2.68
61977;BMP280;45905;50.570;10.428;2023-04-03T02:46:08;98986.72;;;2.69
61977;BMP280;45905;50.570;10.428;2023-04-03T02:48:36;98987.69;;;2.66
61977;BMP280;45905;50.570;10.428;2023-04-03T02:51:03;98998.50;;;2.67
61977;BMP280;45905;50.570;10.428;2023-04-03T02:53:31;98996.09;;;2.66
61977;BMP280;45905;50.570;10.428;2023-04-03T02:56:03;98988.59;;;2.66
61977;BMP280;45905;50.570;10.428;2023-04-03T02:58:30;98989.38;;;2.66
61977;BMP280;45905;50.570;10.428;2023-04-03T03:01:00;98991.88;;;2.66
61977;BMP280;45905;50.570;10.428;2023-04-03T03:03:27;98996.91;;;2.66
61977;BMP280;45905;50.570;10.428;2023-04-03T03:06:13;98997.03;;;2.63
61977;BMP280;45905;50.570;10.428;2023-04-03T03:08:42;98996.25;;;2.63
61977;BMP280;45905;50.570;10.428;2023-04-03T03:11:10;99001.25;;;2.63
61977;BMP280;45905;50.570;10.428;2023-04-03T03:13:38;99003.53;;;2.67
61977;BMP280;45905;50.570;10.428;2023-04-03T03:16:06;98988.44;;;2.68
61977;BMP280;45905;50.570;10.428;2023-04-03T03:18:34;98999.06;;;2.72
61977;BMP280;45905;50.570;10.428;2023-04-03T03:21:03;98993.16;;;2.73
61977;BMP280;45905;50.570;10.428;2023-04-03T03:23:32;98999.06;;;2.72
61977;BMP280;45905;50.570;10.428;2023-04-03T03:26:04;99005.69;;;2.73
61977;BMP280;45905;50.570;10.428;2023-04-03T03:28:35;99002.56;;;2.69
61977;BMP280;45905;50.570;10.428;2023-04-03T03:31:05;99001.75;;;2.69
61977;BMP280;45905;50.570;10.428;2023-04-03T03:33:34;98998.38;;;2.70
61977;BMP280;45905;50.570;10.428;2023-04-03T03:36:01;98999.97;;;2.71
61977;BMP280;45905;50.570;10.428;2023-04-03T03:38:29;99001.00;;;2.67
61977;BMP280;45905;50.570;10.428;2023-04-03T03:40:57;99003.53;;;2.67
61977;BMP280;45905;50.570;10.428;2023-04-03T03:43:25;99000.94;;;2.68
61977;BMP280;45905;50.570;10.428;2023-04-03T03:45:54;99003.53;;;2.67
61977;BMP280;45905;50.570;10.428;2023-04-03T03:48:23;99004.31;;;2.67
61977;BMP280;45905;50.570;10.428;2023-04-03T03:50:50;99002.06;;;2.63
61977;BMP280;45905;50.570;10.428;2023-04-03T03:53:20;98998.13;;;2.59
61977;BMP280;45905;50.570;10.428;2023-04-03T03:55:51;98997.22;;;2.60
61977;BMP280;45905;50.570;10.428;2023-04-03T03:58:20;99002.25;;;2.60
61977;BMP280;45905;50.570;10.428;2023-04-03T04:00:47;98998.19;;;2.58
61977;BMP280;45905;50.570;10.428;2023-04-03T04:03:15;99003.94;;;2.60
61977;BMP280;45905;50.570;10.428;2023-04-03T04:05:45;98998.84;;;2.61
61977;BMP280;45905;50.570;10.428;2023-04-03T04:08:13;99004.56;;;2.63
61977;BMP280;45905;50.570;10.428;2023-04-03T04:10:40;99003.66;;;2.64
61977;BMP280;45905;50.570;10.428;2023-04-03T04:13:08;99004.72;;;2.60
61977;BMP280;45905;50.570;10.428;2023-04-03T04:15:35;99008.13;;;2.59
61977;BMP280;45905;50.570;10.428;2023-04-03T04:18:03;99008.28;;;2.56
61977;BMP280;45905;50.570;10.428;2023-04-03T04:20:31;99004.50;;;2.49
61977;BMP280;45905;50.570;10.428;2023-04-03T04:22:59;98999.63;;;2.47
61977;BMP280;45905;50.570;10.428;2023-04-03T04:25:26;99008.22;;;2.43
61977;BMP280;45905;50.570;10.428;2023-04-03T04:27:54;99005.78;;;2.41
61977;BMP280;45905;50.570;10.428;2023-04-03T04:30:21;99021.59;;;2.42
61977;BMP280;45905;50.570;10.428;2023-04-03T04:32:49;99019.03;;;2.43
61977;BMP280;45905;50.570;10.428;2023-04-03T04:35:17;99022.63;;;2.38
61977;BMP280;45905;50.570;10.428;2023-04-03T04:37:47;99015.44;;;2.32
61977;BMP280;45905;50.570;10.428;2023-04-03T04:40:14;99022.28;;;2.28
61977;BMP280;45905;50.570;10.428;2023-04-03T04:42:42;99024.16;;;2.25
61977;BMP280;45905;50.570;10.428;2023-04-03T04:45:10;99022.75;;;2.20
61977;BMP280;45905;50.570;10.428;2023-04-03T04:47:39;99024.78;;;2.13
61977;BMP280;45905;50.570;10.428;2023-04-03T04:50:07;99027.81;;;2.03
61977;BMP280;45905;50.570;10.428;2023-04-03T04:52:34;99038.28;;;1.94
61977;BMP280;45905;50.570;10.428;2023-04-03T04:55:02;99039.53;;;1.86
61977;BMP280;45905;50.570;10.428;2023-04-03T04:57:29;99046.47;;;1.81
61977;BMP280;45905;50.570;10.428;2023-04-03T04:59:58;99036.63;;;1.78
61977;BMP280;45905;50.570;10.428;2023-04-03T05:02:26;99042.56;;;1.76
61977;BMP280;45905;50.570;10.428;2023-04-03T05:04:54;99041.13;;;1.72
61977;BMP280;45905;50.570;10.428;2023-04-03T05:07:26;99053.69;;;1.71
61977;BMP280;45905;50.570;10.428;2023-04-03T05:09:53;99052.88;;;1.70
61977;BMP280;45905;50.570;10.428;2023-04-03T05:12:21;99049.50;;;1.71
61977;BMP280;45905;50.570;10.428;2023-04-03T05:14:54;99052.13;;;1.68
61977;BMP280;45905;50.570;10.428;2023-04-03T05:17:22;99046.50;;;1.65
61977;BMP280;45905;50.570;10.428;2023-04-03T05:19:52;99053.19;;;1.64
61977;BMP280;45905;50.570;10.428;2023-04-03T05:22:21;99060.66;;;1.64
61977;BMP280;45905;50.570;10.428;2023-04-03T05:24:51;99054.88;;;1.64
61977;BMP280;45905;50.570;10.428;2023-04-03T05:27:19;99053.97;;;1.65
61977;BMP280;45905;50.570;10.428;2023-04-03T05:29:53;99058.09;;;1.66
61977;BMP280;45905;50.570;10.428;2023-04-03T05:32:23;99060.59;;;1.66
61977;BMP280;45905;50.570;10.428;2023-04-03T05:34:59;99057.28;;;1.65
61977;BMP280;45905;50.570;10.428;2023-04-03T05:37:27;99065.66;;;1.64
61977;BMP280;45905;50.570;10.428;2023-04-03T05:39:56;99063.81;;;1.68
61977;BMP280;45905;50.570;10.428;2023-04-03T05:42:23;99063.66;;;1.71
61977;BMP280;45905;50.570;10.428;2023-04-03T05:44:51;99065.28;;;1.71
61977;BMP280;45905;50.570;10.428;2023-04-03T05:47:19;99065.16;;;1.74
61977;BMP280;45905;50.570;10.428;2023-04-03T05:49:46;99070.97;;;1.75
61977;BMP280;45905;50.570;10.428;2023-04-03T05:52:30;99073.44;;;1.75
61977;BMP280;45905;50.570;10.428;2023-04-03T05:54:58;99076.66;;;1.77
61977;BMP280;45905;50.570;10.428;2023-04-03T05:57:27;99079.09;;;1.78
61977;BMP280;45905;50.570;10.428;2023-04-03T05:59:55;99079.09;;;1.78
61977;BMP280;45905;50.570;10.428;2023-04-03T06:02:24;99081.59;;;1.78
61977;BMP280;45905;50.570;10.428;2023-04-03T06:04:52;99088.19;;;1.79
61977;BMP280;45905;50.570;10.428;2023-04-03T06:07:22;99084.00;;;1.80
61977;BMP280;45905;50.570;10.428;2023-04-03T06:09:50;99093.06;;;1.82
61977;BMP280;45905;50.570;10.428;2023-04-03T06:12:19;99093.94;;;1.81
61977;BMP280;45905;50.570;10.428;2023-04-03T06:14:47;99094.75;;;1.82
61977;BMP280;45905;50.570;10.428;2023-04-03T06:17:17;99107.25;;;1.82
61977;BMP280;45905;50.570;10.428;2023-04-03T06:19:45;99103.06;;;1.82
61977;BMP280;45905;50.570;10.428;2023-04-03T06:22:13;99106.44;;;1.81
61977;BMP280;45905;50.570;10.428;2023-04-03T06:24:41;99114.72;;;1.82
61977;BMP280;45905;50.570;10.428;2023-04-03T06:27:10;99108.06;;;1.82
61977;BMP280;45905;50.570;10.428;2023-04-03T06:29:38;99112.25;;;1.82
61977;BMP280;45905;50.570;10.428;2023-04-03T06:32:05;99106.25;;;1.84
61977;BMP280;45905;50.570;10.428;2023-04-03T06:34:32;99111.88;;;1.89
61977;BMP280;45905;50.570;10.428;2023-04-03T06:37:00;99109.22;;;1.92
61977;BMP280;45905;50.570;10.428;2023-04-03T06:39:27;99110.66;;;1.96
61977;BMP280;45905;50.570;10.428;2023-04-03T06:41:54;99106.34;;;1.99
61977;BMP280;45905;50.570;10.428;2023-04-03T06:44:35;99109.59;;;2.01
61977;BMP280;45905;50.570;10.428;2023-04-03T06:47:03;99111.97;;;2.03
61977;BMP280;45905;50.570;10.428;2023-04-03T06:49:31;99120.06;;;2.08
61977;BMP280;45905;50.570;10.428;2023-04-03T06:51:58;99124.13;;;2.10
61977;BMP280;45905;50.570;10.428;2023-04-03T06:54:28;99132.19;;;2.15
61977;BMP280;45905;50.570;10.428;2023-04-03T06:56:55;99131.38;;;2.14
61977;BMP280;45905;50.570;10.428;2023-04-03T06:59:22;99135.66;;;2.12
61977;BMP280;45905;50.570;10.428;2023-04-03T07:01:50;99131.38;;;2.14
61977;BMP280;45905;50.570;10.428;2023-04-03T07:04:17;99135.38;;;2.18
61977;BMP280;45905;50.570;10.428;2023-04-03T07:06:47;99137.69;;;2.21
61977;BMP280;45905;50.570;10.428;2023-04-03T07:09:15;99132.56;;;2.24
61977;BMP280;45905;50.570;10.428;2023-04-03T07:11:42;99137.41;;;2.27
61977;BMP280;45905;50.570;10.428;2023-04-03T07:14:09;99139.72;;;2.30
61977;BMP280;45905;50.570;10.428;2023-04-03T07:16:36;99140.53;;;2.30
61977;BMP280;45905;50.570;10.428;2023-04-03T07:19:07;99148.72;;;2.34
61977;BMP280;45905;50.570;10.428;2023-04-03T07:21:35;99148.72;;;2.34
61977;BMP280;45905;50.570;10.428;2023-04-03T07:24:03;99157.97;;;2.32
61977;BMP280;45905;50.570;10.428;2023-04-03T07:26:30;99156.59;;;2.27
61977;BMP280;45905;50.570;10.428;2023-04-03T07:28:58;99160.06;;;2.24
61977;BMP280;45905;50.570;10.428;2023-04-03T07:31:26;99160.25;;;2.20
61977;BMP280;45905;50.570;10.428;2023-04-03T07:33:53;99163.75;;;2.17
61977;BMP280;45905;50.570;10.428;2023-04-03T07:36:22;99156.25;;;2.17
61977;BMP280;45905;50.570;10.428;2023-04-03T07:38:49;99166.06;;;2.20
61977;BMP280;45905;50.570;10.428;2023-04-03T07:41:19;99169.97;;;2.26
61977;BMP280;45905;50.570;10.428;2023-04-03T07:43:47;99169.75;;;2.30
61977;BMP280;45905;50.570;10.428;2023-04-03T07:46:17;99174.66;;;2.31
61977;BMP280;45905;50.570;10.428;2023-04-03T07:48:44;99182.09;;;2.33
61977;BMP280;45905;50.570;10.428;2023-04-03T07:51:12;99173.72;;;2.34
61977;BMP280;45905;50.570;10.428;2023-04-03T07:53:40;99180.34;;;2.35
61977;BMP280;45905;50.570;10.428;2023-04-03T07:56:07;99180.97;;;2.38
61977;BMP280;45905;50.570;10.428;2023-04-03T07:58:35;99181.66;;;2.42
61977;BMP280;45905;50.570;10.428;2023-04-03T08:01:03;99181.25;;;2.49
61977;BMP280;45905;50.570;10.428;2023-04-03T08:03:30;99187.44;;;2.59
61977;BMP280;45905;50.570;10.428;2023-04-03T08:06:06;99186.00;;;2.70
61977;BMP280;45905;50.570;10.428;2023-04-03T08:08:42;99180.00;;;2.72
61977;BMP280;45905;50.570;10.428;2023-04-03T08:11:10;99188.78;;;2.64
61977;BMP280;45905;50.570;10.428;2023-04-03T08:13:38;99182.16;;;2.63
61977;BMP280;45905;50.570;10.428;2023-04-03T08:16:26;99190.50;;;2.64
61977;BMP280;45905;50.570;10.428;2023-04-03T08:18:55;99184.47;;;2.67
61977;BMP280;45905;50.570;10.428;2023-04-03T08:21:22;99187.78;;;2.68
61977;BMP280;45905;50.570;10.428;2023-04-03T08:23:50;99181.06;;;2.68
61977;BMP280;45905;50.570;10.428;2023-04-03T08:26:20;99179.22;;;2.72
61977;BMP280;45905;50.570;10.428;2023-04-03T08:28:49;99187.38;;;2.75
61977;BMP280;45905;50.570;10.428;2023-04-03T08:31:19;99186.56;;;2.75
61977;BMP280;45905;50.570;10.428;2023-04-03T08:33:47;99187.44;;;2.74
61977;BMP280;45905;50.570;10.428;2023-04-03T08:36:27;99179.31;;;2.70
61977;BMP280;45905;50.570;10.428;2023-04-03T08:38:55;99187.69;;;2.69
61977;BMP280;45905;50.570;10.428;2023-04-03T08:41:42;99181.72;;;2.72
61977;BMP280;45905;50.570;10.428;2023-04-03T08:47:46;99190.97;;;2.86
61977;BMP280;45905;50.570;10.428;2023-04-03T08:50:19;99199.22;;;2.88
61977;BMP280;45905;50.570;10.428;2023-04-03T08:52:58;99198.47;;;2.86
61977;BMP280;45905;50.570;10.428;2023-04-03T08:55:31;99197.72;;;2.85
61977;BMP280;45905;50.570;10.428;2023-04-03T08:58:15;99192.41;;;2.90
61977;BMP280;45905;50.570;10.428;2023-04-03T09:01:13;99210.19;;;3.01
61977;BMP280;45905;50.570;10.428;2023-04-03T09:03:43;99198.56;;;3.00
61977;BMP280;45905;50.570;10.428;2023-04-03T09:06:24;99195.31;;;2.98
61977;BMP280;45905;50.570;10.428;2023-04-03T09:12:21;99184.41;;;2.99
61977;BMP280;45905;50.570;10.428;2023-04-03T09:15:25;99188.06;;;3.09
61977;BMP280;45905;50.570;10.428;2023-04-03T09:18:15;99200.28;;;3.15
61977;BMP280;45905;50.570;10.428;2023-04-03T09:26:18;99196.13;;;2.99
61977;BMP280;45905;50.570;10.428;2023-04-03T09:28:46;99201.31;;;2.96
61977;BMP280;45905;50.570;10.428;2023-04-03T09:31:46;99199.75;;;2.93
61977;BMP280;45905;50.570;10.428;2023-04-03T09:34:27;99205.66;;;2.92
61977;BMP280;45905;50.570;10.428;2023-04-03T09:37:02;99211.72;;;2.88
61977;BMP280;45905;50.570;10.428;2023-04-03T09:39:53;99210.25;;;2.85
61977;BMP280;45905;50.570;10.428;2023-04-03T09:42:24;99208.56;;;2.85
61977;BMP280;45905;50.570;10.428;2023-04-03T09:45:04;99200.16;;;2.86
61977;BMP280;45905;50.570;10.428;2023-04-03T09:47:35;99204.22;;;2.88
61977;BMP280;45905;50.570;10.428;2023-04-03T09:52:42;99204.69;;;2.95
61977;BMP280;45905;50.570;10.428;2023-04-03T09:55:16;99206.13;;;2.99
61977;BMP280;45905;50.570;10.428;2023-04-03T09:57:47;99186.91;;;2.99
61977;BMP280;45905;50.570;10.428;2023-04-03T10:00:37;99198.41;;;3.03
61977;BMP280;45905;50.570;10.428;2023-04-03T10:03:24;99184.28;;;3.02
61977;BMP280;45905;50.570;10.428;2023-04-03T10:05:52;99188.88;;;3.09
61977;BMP280;45905;50.570;10.428;2023-04-03T10:08:29;99182.16;;;3.10
61977;BMP280;45905;50.570;10.428;2023-04-03T10:11:15;99194.53;;;3.13
61977;BMP280;45905;50.570;10.428;2023-04-03T10:13:57;99177.81;;;3.13
61977;BMP280;45905;50.570;10.428;2023-04-03T10:16:34;99182.56;;;3.18
61977;BMP280;45905;50.570;10.428;2023-04-03T10:19:34;99178.03;;;3.24
61977;BMP280;45905;50.570;10.428;2023-04-03T10:26:00;99171.09;;;3.44
61977;BMP280;45905;50.570;10.428;2023-04-03T10:31:54;99175.94;;;3.47
61977;BMP280;45905;50.570;10.428;2023-04-03T10:34:37;99174.00;;;3.52
61977;BMP280;45905;50.570;10.428;2023-04-03T10:37:21;99168.97;;;3.52
61977;BMP280;45905;50.570;10.428;2023-04-03T10:40:05;99180.47;;;3.56
61977;BMP280;45905;50.570;10.428;2023-04-03T10:46:11;99173.19;;;3.51
61977;BMP280;45905;50.570;10.428;2023-04-03T10:49:16;99169.97;;;3.49
61977;BMP280;45905;50.570;10.428;2023-04-03T10:52:20;99162.13;;;3.55
61977;BMP280;45905;50.570;10.428;2023-04-03T10:57:41;99168.31;;;3.63
61977;BMP280;45905;50.570;10.428;2023-04-03T11:00:45;99163.63;;;3.73
61977;BMP280;45905;50.570;10.428;2023-04-03T11:03:30;99162.31;;;3.81
61977;BMP280;45905;50.570;10.428;2023-04-03T11:06:02;99162.59;;;3.90
61977;BMP280;45905;50.570;10.428;2023-04-03T11:08:37;99138.19;;;3.94
61977;BMP280;45905;50.570;10.428;2023-04-03T11:11:13;99148.00;;;3.97
61977;BMP280;45905;50.570;10.428;2023-04-03T11:14:02;99139.25;;;4.03
61977;BMP280;45905;50.570;10.428;2023-04-03T11:16:40;99143.75;;;4.12
61977;BMP280;45905;50.570;10.428;2023-04-03T11:19:31;99128.91;;;4.23
61977;BMP280;45905;50.570;10.428;2023-04-03T11:22:25;99130.06;;;4.31
61977;BMP280;45905;50.570;10.428;2023-04-03T11:25:20;99142.38;;;4.36
61977;BMP280;45905;50.570;10.428;2023-04-03T11:27:59;99133.13;;;4.36
61977;BMP280;45905;50.570;10.428;2023-04-03T11:34:15;99137.25;;;4.51
61977;BMP280;45905;50.570;10.428;2023-04-03T11:36:50;99127.56;;;4.58
61977;BMP280;45905;50.570;10.428;2023-04-03T11:39:25;99137.63;;;4.72
61977;BMP280;45905;50.570;10.428;2023-04-03T11:41:54;99129.78;;;4.76
61977;BMP280;45905;50.570;10.428;2023-04-03T11:44:39;99125.13;;;4.84
61977;BMP280;45905;50.570;10.428;2023-04-03T11:47:08;99121.63;;;4.87
61977;BMP280;45905;50.570;10.428;2023-04-03T11:50:00;99120.09;;;4.98
61977;BMP280;45905;50.570;10.428;2023-04-03T12:08:47;99108.38;;;5.62
61977;BMP280;45905;50.570;10.428;2023-04-03T12:11:30;99091.66;;;5.75
61977;BMP280;45905;50.570;10.428;2023-04-03T12:16:46;99076.88;;;5.83
61977;BMP280;45905;50.570;10.428;2023-04-03T12:24:30;99083.22;;;6.00
61977;BMP280;45905;50.570;10.428;2023-04-03T12:45:24;99058.56;;;6.77
61977;BMP280;45905;50.570;10.428;2023-04-03T12:47:55;99051.00;;;6.77
61977;BMP280;45905;50.570;10.428;2023-04-03T12:50:28;99053.13;;;6.83
61977;BMP280;45905;50.570;10.428;2023-04-03T12:53:10;99064.78;;;6.84
61977;BMP280;45905;50.570;10.428;2023-04-03T12:55:38;99050.22;;;6.76
61977;BMP280;45905;50.570;10.428;2023-04-03T12:58:27;99049.31;;;6.77
61977;BMP280;45905;50.570;10.428;2023-04-03T13:01:25;99049.03;;;6.92
61977;BMP280;45905;50.570;10.428;2023-04-03T13:03:58;99054.94;;;7.04
61977;BMP280;45905;50.570;10.428;2023-04-03T13:06:39;99044.22;;;7.12
61977;BMP280;45905;50.570;10.428;2023-04-03T13:09:23;99040.06;;;7.23
61977;BMP280;45905;50.570;10.428;2023-04-03T13:12:02;99045.25;;;7.33
61977;BMP280;45905;50.570;10.428;2023-04-03T13:14:30;99047.69;;;7.45
61977;BMP280;45905;50.570;10.428;2023-04-03T13:17:12;99045.75;;;7.48
61977;BMP280;45905;50.570;10.428;2023-04-03T13:19:42;99037.25;;;7.39
61977;BMP280;45905;50.570;10.428;2023-04-03T13:22:35;99049.53;;;7.43
61977;BMP280;45905;50.570;10.428;2023-04-03T13:25:09;99041.31;;;7.52
61977;BMP280;45905;50.570;10.428;2023-04-03T13:27:38;99028.16;;;7.59
61977;BMP280;45905;50.570;10.428;2023-04-03T13:30:35;99039.06;;;7.60
61977;BMP280;45905;50.570;10.428;2023-04-03T13:33:20;99033.19;;;7.59
61977;BMP280;45905;50.570;10.428;2023-04-03T13:36:13;99034.16;;;7.69
61977;BMP280;45905;50.570;10.428;2023-04-03T13:38:43;99023.00;;;7.71
61977;BMP280;45905;50.570;10.428;2023-04-03T13:41:35;99034.84;;;7.81
61977;BMP280;45905;50.570;10.428;2023-04-03T13:44:38;99028.47;;;7.99
61977;BMP280;45905;50.570;10.428;2023-04-03T13:47:25;99017.66;;;7.97
61977;BMP280;45905;50.570;10.428;2023-04-03T13:50:03;99021.63;;;8.12
61977;BMP280;45905;50.570;10.428;2023-04-03T13:52:40;99021.25;;;8.05
61977;BMP280;45905;50.570;10.428;2023-04-03T13:55:34;99029.22;;;7.89
61977;BMP280;45905;50.570;10.428;2023-04-03T13:58:23;99016.97;;;7.84
61977;BMP280;45905;50.570;10.428;2023-04-03T14:01:21;99023.38;;;7.88
61977;BMP280;45905;50.570;10.428;2023-04-03T14:04:09;99021.13;;;7.96
61977;BMP280;45905;50.570;10.428;2023-04-03T14:06:37;99027.66;;;7.99
61977;BMP280;45905;50.570;10.428;2023-04-03T14:09:04;99034.34;;;8.00
61977;BMP280;45905;50.570;10.428;2023-04-03T14:11:33;99025.84;;;8.00
61977;BMP280;45905;50.570;10.428;2023-04-03T14:14:11;99015.78;;;8.11
61977;BMP280;45905;50.570;10.428;2023-04-03T14:16:44;99010.84;;;8.10
61977;BMP280;45905;50.570;10.428;2023-04-03T14:19:28;99014.84;;;8.23
61977;BMP280;45905;50.570;10.428;2023-04-03T14:21:58;99000.28;;;8.37
61977;BMP280;45905;50.570;10.428;2023-04-03T14:24:25;98998.19;;;8.53
61977;BMP280;45905;50.570;10.428;2023-04-03T14:26:55;98996.78;;;8.70
61977;BMP280;45905;50.570;10.428;2023-04-03T14:29:23;99008.72;;;8.68
61977;BMP280;45905;50.570;10.428;2023-04-03T14:31:50;99005.56;;;8.45
61977;BMP280;45905;50.570;10.428;2023-04-03T14:34:33;98998.09;;;8.33
61977;BMP280;45905;50.570;10.428;2023-04-03T14:37:00;99002.34;;;8.32
61977;BMP280;45905;50.570;10.428;2023-04-03T14:39:27;99008.78;;;8.36
61977;BMP280;45905;50.570;10.428;2023-04-03T14:41:54;99003.94;;;8.33
61977;BMP280;45905;50.570;10.428;2023-04-03T14:44:22;99006.72;;;8.30
61977;BMP280;45905;50.570;10.428;2023-04-03T14:46:50;99007.28;;;8.34
61977;BMP280;45905;50.570;10.428;2023-04-03T14:49:28;98998.91;;;8.33
61977;BMP280;45905;50.570;10.428;2023-04-03T14:51:57;98995.72;;;8.31
61977;BMP280;45905;50.570;10.428;2023-04-03T14:54:25;98992.00;;;8.24
61977;BMP280;45905;50.570;10.428;2023-04-03T14:56:58;99001.44;;;8.22
61977;BMP280;45905;50.570;10.428;2023-04-03T14:59:28;98997.09;;;8.14
61977;BMP280;45905;50.570;10.428;2023-04-03T15:01:55;99008.66;;;8.16
61977;BMP280;45905;50.570;10.428;2023-04-03T15:04:22;99003.50;;;8.18
61977;BMP280;45905;50.570;10.428;2023-04-03T15:06:51;99001.06;;;8.05
61977;BMP280;45905;50.570;10.428;2023-04-03T15:09:24;98998.63;;;7.93
61977;BMP280;45905;50.570;10.428;2023-04-03T15:11:54;98996.56;;;7.87
61977;BMP280;45905;50.570;10.428;2023-04-03T15:14:22;98994.97;;;7.86
61977;BMP280;45905;50.570;10.428;2023-04-03T15:17:05;98993.53;;;7.72
61977;BMP280;45905;50.570;10.428;2023-04-03T15:19:39;99000.66;;;7.67
61977;BMP280;45905;50.570;10.428;2023-04-03T15:22:18;99009.47;;;7.61
61977;BMP280;45905;50.570;10.428;2023-04-03T15:24:46;99001.31;;;7.58
61977;BMP280;45905;50.570;10.428;2023-04-03T15:27:13;99000.19;;;7.62
61977;BMP280;45905;50.570;10.428;2023-04-03T15:29:43;99004.75;;;7.57
61977;BMP280;45905;50.570;10.428;2023-04-03T15:32:12;99007.75;;;7.51
61977;BMP280;45905;50.570;10.428;2023-04-03T15:34:39;99006.22;;;7.49
61977;BMP280;45905;50.570;10.428;2023-04-03T15:37:07;98995.34;;;7.48
61977;BMP280;45905;50.570;10.428;2023-04-03T15:39:34;99001.19;;;7.49
61977;BMP280;45905;50.570;10.428;2023-04-03T15:42:01;98992.94;;;7.47
61977;BMP280;45905;50.570;10.428;2023-04-03T15:44:36;98998.31;;;7.53
61977;BMP280;45905;50.570;10.428;2023-04-03T15:47:03;98996.59;;;7.54
61977;BMP280;45905;50.570;10.428;2023-04-03T15:49:33;98983.19;;;7.53
61977;BMP280;45905;50.570;10.428;2023-04-03T15:52:01;98995.13;;;7.51
61977;BMP280;45905;50.570;10.428;2023-04-03T15:54:28;99003.34;;;7.43
61977;BMP280;45905;50.570;10.428;2023-04-03T15:56:56;98996.81;;;7.40
61977;BMP280;45905;50.570;10.428;2023-04-03T15:59:24;98991.16;;;7.37
61977;BMP280;45905;50.570;10.428;2023-04-03T16:01:52;98990.38;;;7.36